Time;durP1;ratioP1;P1;durP2;ratioP2;P2;SDS_P1;SDS_P2;PMS_P1;PMS_P2;Temp;Humidity;BMP_temperature;BMP_pressure;BME280_temperature;BME280_humidity;BME280_pressure;Samples;Min_cycle;Max_cycle;Signal;HPM_P1;HPM_P2
2021/04/07 00:01:40;;;;;;;14.60;2.70;;;;;;;0.97;74.79;101341.66;5086965;28;20047;-76
2021/04/07 00:04:06;;;;;;;16.92;2.53;;;;;;;0.98;74.27;101351.94;5059809;28;20114;-76
2021/04/07 00:06:34;;;;;;;22.17;1.98;;;;;;;0.94;74.55;101342.66;5074095;28;20056;-76
2021/04/07 00:09:02;;;;;;;9.88;2.00;;;;;;;0.88;74.64;101340.34;5059834;28;20052;-76
2021/04/07 00:11:28;;;;;;;11.02;1.50;;;;;;;0.92;73.96;101353.94;5069989;28;20044;-76
2021/04/07 00:13:55;;;;;;;14.75;2.00;;;;;;;0.94;74.14;101352.97;5063098;28;20453;-77
2021/04/07 00:16:21;;;;;;;14.85;2.13;;;;;;;0.89;74.13;101349.75;5082455;28;20060;-76
2021/04/07 00:18:48;;;;;;;10.90;1.77;;;;;;;0.91;73.98;101354.88;5084916;28;20048;-78
2021/04/07 00:21:14;;;;;;;15.88;2.17;;;;;;;0.90;74.25;101353.19;5076884;28;20056;-76
2021/04/07 00:23:40;;;;;;;10.82;1.88;;;;;;;0.88;74.23;101345.53;5087669;28;20063;-75
2021/04/07 00:26:05;;;;;;;10.18;2.10;;;;;;;0.86;73.87;101344.72;5064467;28;20052;-78
2021/04/07 00:28:33;;;;;;;13.00;2.05;;;;;;;0.81;73.97;101354.44;5075564;28;20052;-77
2021/04/07 00:30:59;;;;;;;14.38;2.63;;;;;;;0.76;73.83;101351.22;5063439;28;20070;-77
2021/04/07 00:33:25;;;;;;;5.97;1.60;;;;;;;0.74;74.15;101346.13;5082285;28;20048;-77
2021/04/07 00:35:51;;;;;;;12.27;2.33;;;;;;;0.66;74.13;101343.06;5065247;28;20048;-77
2021/04/07 00:38:17;;;;;;;16.98;1.60;;;;;;;0.66;74.44;101349.97;5063945;28;20136;-77
2021/04/07 00:40:43;;;;;;;12.98;2.05;;;;;;;0.64;74.93;101344.88;5081629;28;20052;-78
2021/04/07 00:43:09;;;;;;;13.98;2.47;;;;;;;0.61;74.83;101339.00;5061190;28;20291;-77
2021/04/07 00:45:36;;;;;;;13.00;2.97;;;;;;;0.56;74.96;101347.81;5066989;28;20051;-76
2021/04/07 00:48:03;;;;;;;15.23;3.17;;;;;;;0.54;75.46;101347.03;5064913;28;20094;-76
2021/04/07 00:50:32;;;;;;;21.10;4.50;;;;;;;0.49;75.69;101345.56;5072829;28;20044;-76
2021/04/07 00:52:58;;;;;;;14.23;3.33;;;;;;;0.40;75.88;101352.00;5054749;28;20067;-76
2021/04/07 00:55:28;;;;;;;16.23;4.35;;;;;;;0.51;76.11;101351.50;5065620;28;20066;-76
2021/04/07 00:57:55;;;;;;;20.40;4.65;;;;;;;0.43;75.53;101351.84;5068934;28;20047;-76
2021/04/07 01:00:22;;;;;;;31.98;4.90;;;;;;;0.41;75.71;101358.81;5058271;28;20079;-77
2021/04/07 01:02:56;;;;;;;15.75;3.88;;;;;;;0.46;76.07;101358.63;5077713;28;20051;-76
2021/04/07 01:05:23;;;;;;;15.65;4.47;;;;;;;0.49;76.09;101361.91;5071047;28;20075;-76
2021/04/07 01:07:49;;;;;;;22.55;7.22;;;;;;;0.48;75.83;101361.97;5088202;28;20052;-76
2021/04/07 01:10:16;;;;;;;30.75;9.05;;;;;;;0.46;76.51;101354.28;5066055;28;20574;-76
2021/04/07 01:12:44;;;;;;;30.77;8.25;;;;;;;0.53;76.59;101347.09;5073842;28;20067;-76
2021/04/07 01:15:12;;;;;;;21.13;7.00;;;;;;;0.43;76.89;101335.53;5051660;28;20051;-76
2021/04/07 01:17:39;;;;;;;23.67;6.43;;;;;;;0.46;77.05;101332.81;5069860;28;20048;-76
2021/04/07 01:20:10;;;;;;;24.67;7.30;;;;;;;0.53;77.69;101337.63;5083003;28;20040;-76
2021/04/07 01:22:38;;;;;;;21.63;6.30;;;;;;;0.57;77.06;101341.75;5080496;28;20754;-76
2021/04/07 01:25:05;;;;;;;22.20;6.30;;;;;;;0.58;77.31;101340.84;5068802;28;20051;-76
2021/04/07 01:27:32;;;;;;;25.90;5.13;;;;;;;0.56;77.48;101334.91;5078475;28;20087;-77
2021/04/07 01:29:58;;;;;;;14.57;4.78;;;;;;;0.53;77.57;101340.22;5060739;28;20101;-77
2021/04/07 01:32:24;;;;;;;22.58;5.35;;;;;;;0.57;78.21;101343.50;5077290;28;20060;-77
2021/04/07 01:34:50;;;;;;;37.60;6.13;;;;;;;0.55;78.25;101346.16;5065600;28;20504;-76
2021/04/07 01:37:17;;;;;;;18.95;4.78;;;;;;;0.50;78.47;101340.34;5063633;28;20116;-76
2021/04/07 01:39:43;;;;;;;29.02;6.30;;;;;;;0.51;78.38;101347.19;5047497;28;20111;-77
2021/04/07 01:42:10;;;;;;;28.65;6.68;;;;;;;0.54;78.89;101333.31;5062365;28;20868;-76
2021/04/07 01:44:37;;;;;;;24.23;5.63;;;;;;;0.54;79.45;101333.31;5056600;28;20487;-76
2021/04/07 01:47:05;;;;;;;20.17;4.68;;;;;;;0.52;80.18;101337.69;5079400;28;20047;-76
2021/04/07 01:49:32;;;;;;;21.85;5.65;;;;;;;0.55;80.14;101337.56;5071198;28;20063;-76
2021/04/07 01:51:59;;;;;;;18.20;4.55;;;;;;;0.54;80.56;101335.88;5078157;28;20059;-77
2021/04/07 01:54:25;;;;;;;12.02;4.22;;;;;;;0.54;80.69;101330.72;5083533;28;20048;-77
2021/04/07 01:56:56;;;;;;;20.50;4.43;;;;;;;0.64;80.83;101337.13;5064053;28;20152;-76
2021/04/07 01:59:24;;;;;;;22.80;5.88;;;;;;;0.68;80.76;101345.59;5064988;28;20556;-76
2021/04/07 02:01:51;;;;;;;19.20;4.53;;;;;;;0.66;81.29;101337.91;5080722;28;20048;-76
2021/04/07 02:04:18;;;;;;;23.27;4.50;;;;;;;0.71;80.80;101333.38;5078138;28;20958;-76
2021/04/07 02:06:47;;;;;;;22.40;4.30;;;;;;;0.67;81.21;101337.00;5069307;28;20059;-77
2021/04/07 02:09:16;;;;;;;18.55;4.80;;;;;;;0.73;81.08;101344.47;5058822;28;20291;-76
2021/04/07 02:11:47;;;;;;;17.40;4.75;;;;;;;0.76;81.12;101341.72;5069327;28;20435;-76
2021/04/07 02:14:17;;;;;;;20.52;4.40;;;;;;;0.82;81.18;101342.38;5078620;28;20056;-77
2021/04/07 02:17:01;;;;;;;15.88;4.28;;;;;;;0.83;81.29;101352.63;5077015;28;20052;-77
2021/04/07 02:19:33;;;;;;;15.15;4.38;;;;;;;0.83;81.02;101341.47;5088853;28;20052;-76
2021/04/07 02:22:05;;;;;;;18.23;5.43;;;;;;;0.77;81.18;101347.75;5085097;28;20048;-76
2021/04/07 02:24:32;;;;;;;15.40;3.85;;;;;;;0.77;81.14;101340.00;5060776;28;20055;-77
2021/04/07 02:27:01;;;;;;;16.80;4.45;;;;;;;0.80;80.55;101342.44;5091000;28;20051;-77
2021/04/07 02:29:27;;;;;;;15.10;4.80;;;;;;;0.75;80.84;101331.50;5090411;28;20536;-77
2021/04/07 02:31:54;;;;;;;13.20;4.40;;;;;;;0.86;80.84;101333.56;5068570;28;20105;-77
2021/04/07 02:34:20;;;;;;;11.40;3.83;;;;;;;0.81;80.83;101332.97;5087859;28;20433;-77
2021/04/07 02:36:46;;;;;;;16.13;4.05;;;;;;;0.86;80.74;101336.97;5069891;28;20441;-77
2021/04/07 02:39:12;;;;;;;13.15;3.72;;;;;;;0.93;80.72;101327.22;5069419;28;20056;-77
2021/04/07 02:41:38;;;;;;;15.15;4.72;;;;;;;0.85;81.01;101332.75;5068591;28;20119;-76
2021/04/07 02:44:05;;;;;;;14.68;4.50;;;;;;;0.92;80.66;101328.09;5071085;28;20056;-77
2021/04/07 02:46:32;;;;;;;8.82;3.05;;;;;;;0.79;81.19;101323.53;5079815;28;20128;-77
2021/04/07 02:48:58;;;;;;;16.27;4.00;;;;;;;0.81;81.20;101326.03;5073572;28;20075;-77
2021/04/07 02:51:24;;;;;;;14.18;3.38;;;;;;;0.75;81.37;101316.00;5082098;28;20081;-77
2021/04/07 02:53:50;;;;;;;8.50;3.40;;;;;;;0.79;81.49;101323.53;5070797;28;20067;-77
2021/04/07 02:56:16;;;;;;;7.38;3.00;;;;;;;0.86;81.21;101328.41;5072127;28;20063;-77
2021/04/07 02:58:42;;;;;;;11.73;4.18;;;;;;;0.91;81.23;101319.53;5073369;28;20074;-77
2021/04/07 03:01:08;;;;;;;8.35;2.90;;;;;;;0.78;81.59;101302.94;5079410;28;20074;-77
2021/04/07 03:03:34;;;;;;;14.52;3.72;;;;;;;0.75;81.42;101306.50;5069645;28;20123;-77
2021/04/07 03:06:01;;;;;;;18.23;5.40;;;;;;;0.71;81.92;101307.56;5069499;28;20455;-77
2021/04/07 03:08:27;;;;;;;12.88;5.28;;;;;;;0.64;81.84;101313.91;5082138;28;20060;-77
2021/04/07 03:10:53;;;;;;;17.10;5.57;;;;;;;0.71;82.08;101320.47;5096775;28;20055;-77
2021/04/07 03:13:19;;;;;;;21.08;5.72;;;;;;;0.75;82.05;101314.25;5079603;28;20090;-77
2021/04/07 03:15:45;;;;;;;17.25;5.55;;;;;;;0.64;82.35;101302.75;5065160;28;20117;-77
2021/04/07 03:18:11;;;;;;;20.10;6.47;;;;;;;0.55;82.50;101304.84;5068335;28;20082;-77
2021/04/07 03:20:38;;;;;;;15.93;5.70;;;;;;;0.51;83.01;101297.28;5071401;28;20055;-77
2021/04/07 03:23:04;;;;;;;14.15;5.30;;;;;;;0.47;83.29;101291.44;5066518;28;20055;-77
2021/04/07 03:25:30;;;;;;;19.88;5.45;;;;;;;0.53;83.53;101283.44;5089800;28;20067;-77
2021/04/07 03:27:56;;;;;;;17.98;5.30;;;;;;;0.52;83.45;101276.56;5093716;28;20052;-77
2021/04/07 03:30:22;;;;;;;19.88;4.90;;;;;;;0.52;83.60;101279.16;5095178;28;20063;-77
2021/04/07 03:32:48;;;;;;;12.27;4.63;;;;;;;0.54;83.56;101284.25;5057629;28;20052;-77
2021/04/07 03:35:14;;;;;;;18.65;4.80;;;;;;;0.61;83.54;101288.25;5087132;28;20159;-77
2021/04/07 03:37:40;;;;;;;13.07;4.30;;;;;;;0.63;83.39;101290.72;5075808;28;20060;-77
2021/04/07 03:40:07;;;;;;;20.70;4.63;;;;;;;0.63;83.72;101272.66;5077302;28;20532;-77
2021/04/07 03:42:33;;;;;;;15.02;4.80;;;;;;;0.66;83.53;101283.69;5068352;28;20105;-77
2021/04/07 03:44:59;;;;;;;17.55;3.55;;;;;;;0.57;83.57;101272.03;5075820;28;20052;-76
2021/04/07 03:47:25;;;;;;;8.75;2.92;;;;;;;0.59;83.82;101277.97;5077624;28;20083;-77
2021/04/07 03:49:51;;;;;;;12.38;3.15;;;;;;;0.59;83.67;101279.72;5055792;28;20167;-76
2021/04/07 03:52:17;;;;;;;14.65;3.45;;;;;;;0.62;83.62;101279.56;5063428;28;20595;-76
2021/04/07 03:54:44;;;;;;;10.35;3.20;;;;;;;0.58;83.69;101272.88;5078731;28;20050;-76
2021/04/07 03:57:10;;;;;;;24.98;3.80;;;;;;;0.66;83.85;101277.69;5078229;28;20063;-76
2021/04/07 03:59:36;;;;;;;12.70;3.92;;;;;;;0.69;83.70;101275.81;5074274;28;20405;-76
2021/04/07 04:02:02;;;;;;;15.48;3.40;;;;;;;0.71;83.42;101280.91;5053586;28;20492;-76
2021/04/07 04:04:29;;;;;;;12.93;3.58;;;;;;;0.65;83.77;101287.19;5054428;28;20065;-75
2021/04/07 04:06:55;;;;;;;10.75;2.88;;;;;;;0.67;83.38;101289.69;5061041;28;20128;-75
2021/04/07 04:09:21;;;;;;;13.80;3.55;;;;;;;0.51;83.96;101284.38;5084030;28;20487;-75
2021/04/07 04:11:47;;;;;;;11.07;2.47;;;;;;;0.50;83.99;101278.38;5084154;28;20052;-75
2021/04/07 04:14:13;;;;;;;7.07;2.40;;;;;;;0.61;83.84;101288.25;5070823;28;20059;-74
2021/04/07 04:16:41;;;;;;;13.70;2.65;;;;;;;0.57;83.87;101284.13;5059077;28;20128;-74
2021/04/07 04:19:07;;;;;;;16.40;2.70;;;;;;;0.53;83.79;101279.97;5067837;28;20052;-74
2021/04/07 04:21:33;;;;;;;13.98;3.80;;;;;;;0.55;83.97;101276.44;5076840;28;20090;-74
2021/04/07 04:23:59;;;;;;;17.00;3.83;;;;;;;0.58;83.85;101278.03;5073287;28;20542;-74
2021/04/07 04:26:25;;;;;;;14.57;4.13;;;;;;;0.51;83.92;101274.91;5080454;28;20053;-74
2021/04/07 04:28:51;;;;;;;11.40;3.40;;;;;;;0.53;83.99;101277.41;5062137;28;20059;-74
2021/04/07 04:31:17;;;;;;;12.18;3.58;;;;;;;0.52;84.35;101274.00;5061524;28;20060;-74
2021/04/07 04:33:43;;;;;;;14.80;4.07;;;;;;;0.53;84.43;101275.69;5063384;28;20055;-74
2021/04/07 04:36:10;;;;;;;14.85;2.97;;;;;;;0.52;83.96;101260.25;5067826;28;20075;-73
2021/04/07 04:38:36;;;;;;;15.45;3.60;;;;;;;0.47;84.21;101246.72;5085586;28;20694;-74
2021/04/07 04:41:02;;;;;;;8.00;2.75;;;;;;;0.47;84.63;101245.00;5062456;28;20495;-73
2021/04/07 04:43:28;;;;;;;13.80;3.92;;;;;;;0.47;84.57;101233.81;5078411;28;20059;-73
2021/04/07 04:45:54;;;;;;;9.82;3.50;;;;;;;0.44;84.57;101229.63;5062909;28;20239;-74
2021/04/07 04:48:22;;;;;;;17.17;4.00;;;;;;;0.36;84.98;101229.16;5078126;28;20047;-74
2021/04/07 04:50:48;;;;;;;14.55;3.22;;;;;;;0.38;84.81;101228.16;5055252;28;20044;-73
2021/04/07 04:53:14;;;;;;;12.88;2.92;;;;;;;0.36;84.92;101224.81;5074689;28;20483;-73
2021/04/07 04:55:40;;;;;;;16.80;3.55;;;;;;;0.33;85.12;101224.97;5076118;28;20078;-73
2021/04/07 04:58:06;;;;;;;14.95;2.88;;;;;;;0.36;85.12;101209.34;5073182;28;20054;-73
2021/04/07 05:00:32;;;;;;;14.65;2.42;;;;;;;0.39;85.48;101204.06;5083304;28;20059;-73
2021/04/07 05:02:58;;;;;;;16.80;4.13;;;;;;;0.41;85.41;101203.94;5084952;28;20044;-73
2021/04/07 05:05:24;;;;;;;9.85;2.78;;;;;;;0.45;85.24;101200.34;5067824;28;20066;-73
2021/04/07 05:07:50;;;;;;;11.27;3.22;;;;;;;0.51;85.14;101197.47;5078609;28;20056;-73
2021/04/07 05:10:16;;;;;;;8.27;3.17;;;;;;;0.42;85.40;101199.66;5075567;28;20055;-73
2021/04/07 05:12:42;;;;;;;16.75;3.83;;;;;;;0.45;85.36;101190.03;5085333;28;20053;-74
2021/04/07 05:15:08;;;;;;;14.30;3.10;;;;;;;0.54;85.17;101192.16;5080779;27;20047;-73
2021/04/07 05:17:35;;;;;;;6.88;2.95;;;;;;;0.50;85.03;101182.06;5068776;28;20070;-74
2021/04/07 05:20:04;;;;;;;9.10;2.50;;;;;;;0.51;84.98;101199.19;5083259;28;20105;-73
2021/04/07 05:22:30;;;;;;;16.10;3.72;;;;;;;0.57;84.89;101194.59;5058841;28;20453;-73
2021/04/07 05:24:56;;;;;;;6.82;3.45;;;;;;;0.54;85.24;101199.91;5084512;28;20055;-74
2021/04/07 05:27:22;;;;;;;15.38;3.88;;;;;;;0.57;84.83;101215.25;5080249;28;20056;-74
2021/04/07 05:29:48;;;;;;;15.07;5.47;;;;;;;0.59;84.96;101207.44;5066295;28;20051;-73
2021/04/07 05:32:14;;;;;;;13.13;6.30;;;;;;;0.49;85.09;101198.44;5078208;28;20055;-74
2021/04/07 05:34:40;;;;;;;14.38;4.82;;;;;;;0.53;85.35;101203.41;5052198;28;21350;-74
2021/04/07 05:37:06;;;;;;;11.10;5.93;;;;;;;0.53;85.23;101215.44;5072875;28;20051;-74
2021/04/07 05:39:32;;;;;;;8.45;4.15;;;;;;;0.55;85.00;101217.06;5080721;28;20121;-76
2021/04/07 05:41:58;;;;;;;11.77;3.92;;;;;;;0.68;85.04;101213.91;5086770;28;20449;-75
2021/04/07 05:44:24;;;;;;;10.27;4.07;;;;;;;0.76;84.77;101222.94;5061709;28;20101;-75
2021/04/07 05:46:50;;;;;;;12.23;4.32;;;;;;;0.86;84.45;101225.91;5074165;28;20055;-75
2021/04/07 05:49:17;;;;;;;10.00;4.07;;;;;;;0.93;84.14;101205.81;5047450;28;20582;-75
2021/04/07 05:51:43;;;;;;;7.38;4.00;;;;;;;0.97;84.12;101213.31;5086694;28;20395;-75
2021/04/07 05:54:09;;;;;;;8.02;2.30;;;;;;;0.95;83.41;101204.00;5067936;28;20109;-75
2021/04/07 05:56:35;;;;;;;4.78;2.60;;;;;;;0.92;83.79;101204.13;5080417;28;20443;-75
2021/04/07 05:59:21;;;;;;;6.55;2.83;;;;;;;-145.50;100.00;65435.88;5085550;28;20143;-74
2021/04/07 06:02:08;;;;;;;7.38;3.00;;;;;;;-145.50;100.00;65435.88;5070040;28;20105;-75
2021/04/07 06:04:34;;;;;;;6.75;2.85;;;;;;;0.72;83.57;101218.84;5073670;28;20063;-75
2021/04/07 06:07:20;;;;;;;8.13;3.10;;;;;;;-145.50;100.00;65435.88;5072854;28;20047;-74
2021/04/07 06:10:07;;;;;;;10.07;5.15;;;;;;;-145.50;100.00;65435.88;5070918;28;20459;-74
2021/04/07 06:12:54;;;;;;;10.05;5.40;;;;;;;-145.50;100.00;65435.88;5074452;28;20067;-73
2021/04/07 06:15:41;;;;;;;10.88;5.93;;;;;;;-145.50;100.00;65435.88;5077730;28;20059;-74
2021/04/07 06:18:28;;;;;;;13.13;6.80;;;;;;;-145.50;100.00;65435.88;5071115;28;20044;-74
2021/04/07 06:21:16;;;;;;;11.48;5.88;;;;;;;-145.50;100.00;65435.88;5080049;28;20075;-74
2021/04/07 06:24:02;;;;;;;13.43;7.45;;;;;;;-145.50;100.00;65435.88;5069162;28;20056;-74
2021/04/07 06:26:49;;;;;;;10.90;6.43;;;;;;;-145.50;100.00;65435.88;5053243;28;20052;-74
2021/04/07 06:29:35;;;;;;;10.55;5.55;;;;;;;-145.50;100.00;65435.88;5082086;28;20471;-74
2021/04/07 06:32:22;;;;;;;10.65;5.28;;;;;;;-145.50;100.00;65435.88;5076812;28;20173;-74
2021/04/07 06:35:03;;;;;;;10.63;6.05;;;;;;;0.72;84.07;83417.09;5077651;28;20105;-74
2021/04/07 06:37:33;;;;;;;15.25;5.97;;;;;;;0.72;83.57;101218.84;5074547;28;20056;-75
2021/04/07 06:40:05;;;;;;;10.20;5.43;;;;;;;0.72;83.57;101218.84;5052621;28;20118;-75
2021/04/07 06:42:47;;;;;;;8.70;4.95;;;;;;;;;;5073754;28;20052;-75
2021/04/07 06:45:13;;;;;;;10.38;5.97;;;;;;;-145.50;100.00;65435.88;5068063;28;21013;-74
2021/04/07 06:48:01;;;;;;;9.70;5.85;;;;;;;-145.50;100.00;65435.88;5076537;28;20086;-74
2021/04/07 06:50:41;;;;;;;8.95;4.85;;;;;;;-145.50;100.00;65435.88;5083706;28;20059;-74
2021/04/07 06:53:27;;;;;;;9.68;5.38;;;;;;;-145.50;84.29;65435.88;5077396;28;20116;-74
2021/04/07 06:56:02;;;;;;;14.13;5.95;;;;;;;1.24;84.29;101212.88;5060323;28;20045;-74
2021/04/07 06:58:33;;;;;;;13.00;5.18;;;;;;;1.24;84.29;101212.88;5071814;28;20051;-75
2021/04/07 07:01:19;;;;;;;10.57;5.25;;;;;;;-145.50;100.00;65435.88;5062790;28;20877;-75
2021/04/07 07:04:07;;;;;;;11.73;4.95;;;;;;;-145.50;100.00;65435.88;5052986;28;20110;-75
2021/04/07 07:06:54;;;;;;;12.25;5.05;;;;;;;-145.50;100.00;65435.88;5071052;28;20078;-75
2021/04/07 07:09:51;;;;;;;14.85;5.50;;;;;;;-145.50;100.00;65435.88;5077502;28;20048;-75
2021/04/07 07:12:39;;;;;;;12.50;4.93;;;;;;;-145.50;100.00;65435.88;5080757;28;20063;-75
2021/04/07 07:15:26;;;;;;;8.30;4.03;;;;;;;-145.50;100.00;65435.88;5077865;28;20044;-76
2021/04/07 07:18:22;;;;;;;12.52;3.95;;;;;;;-145.50;100.00;65435.88;5075184;28;20124;-76
2021/04/07 07:21:13;;;;;;;10.48;3.70;;;;;;;-145.50;100.00;65435.88;5076794;28;20101;-76
2021/04/07 07:24:04;;;;;;;9.73;4.13;;;;;;;-145.50;100.00;65435.88;5066362;28;20073;-76
2021/04/07 07:27:01;;;;;;;8.48;3.78;;;;;;;-145.50;100.00;65435.88;5076347;28;20048;-76
2021/04/07 07:29:39;;;;;;;10.27;3.65;;;;;;;-145.50;100.00;65435.88;5084717;28;20104;-76
2021/04/07 07:32:30;;;;;;;19.30;4.87;;;;;;;-145.50;100.00;65435.88;5076729;28;20067;-76
2021/04/07 07:35:14;;;;;;;13.75;3.55;;;;;;;-145.50;100.00;65435.88;5079769;28;20301;-76
2021/04/07 07:37:44;;;;;;;16.88;3.80;;;;;;;-145.50;100.00;65435.88;5067071;28;20072;-76
2021/04/07 07:40:31;;;;;;;14.10;4.47;;;;;;;-145.50;100.00;65435.88;5078226;28;20060;-76
2021/04/07 07:42:58;;;;;;;11.60;3.88;;;;;;;-145.50;100.00;65435.88;5068133;28;20044;-76
2021/04/07 07:45:36;;;;;;;13.38;3.20;;;;;;;-145.50;100.00;65435.88;5078020;28;20048;-76
2021/04/07 07:48:19;;;;;;;8.68;3.47;;;;;;;-145.50;100.00;65435.88;5062474;28;20056;-76
2021/04/07 07:51:12;;;;;;;8.82;3.20;;;;;;;-145.50;100.00;65435.88;5076196;28;20085;-76
2021/04/07 07:53:38;;;;;;;11.57;3.80;;;;;;;-145.50;100.00;65435.88;5080165;28;20060;-76
2021/04/07 07:56:23;;;;;;;12.60;4.00;;;;;;;-145.50;100.00;65435.88;5069664;28;20531;-75
2021/04/07 07:58:53;;;;;;;10.73;3.72;;;;;;;-145.50;100.00;65435.88;5080723;28;20052;-75
2021/04/07 08:01:49;;;;;;;10.73;2.83;;;;;;;-145.50;100.00;65435.88;5071714;28;20059;-76
2021/04/07 08:04:18;;;;;;;10.27;3.13;;;;;;;-145.50;100.00;65435.88;5081325;28;20193;-76
2021/04/07 08:06:56;;;;;;;13.27;2.58;;;;;;;-145.50;100.00;65435.88;5065126;28;20120;-75
2021/04/07 08:09:31;;;;;;;11.45;2.42;;;;;;;-145.50;100.00;65435.88;5072159;28;20056;-76
2021/04/07 08:12:10;;;;;;;11.70;1.45;;;;;;;-145.50;100.00;65435.88;5064874;28;20052;-75
2021/04/07 08:14:40;;;;;;;5.80;1.58;;;;;;;1.24;84.29;101212.88;5068685;28;20055;-76
2021/04/07 08:17:07;;;;;;;6.50;1.42;;;;;;;4.06;82.61;101359.00;5088253;28;20052;-76
2021/04/07 08:19:36;;;;;;;10.93;2.28;;;;;;;4.16;82.93;101359.28;5073519;28;20051;-76
2021/04/07 08:22:15;;;;;;;21.55;1.95;;;;;;;-145.50;100.00;65435.88;5083084;28;20044;-76
2021/04/07 08:24:42;;;;;;;17.67;2.53;;;;;;;-145.50;100.00;65435.88;5066288;28;20044;-75
2021/04/07 08:27:09;;;;;;;16.08;2.03;;;;;;;-145.50;100.00;65435.88;5088856;28;20051;-75
2021/04/07 08:29:37;;;;;;;24.00;2.78;;;;;;;-145.50;100.00;65435.88;5081841;28;20105;-75
2021/04/07 08:32:03;;;;;;;26.48;2.45;;;;;;;4.49;82.90;101391.97;5089051;28;20040;-76
2021/04/07 08:34:40;;;;;;;13.68;2.53;;;;;;;-145.50;100.00;65435.88;5078108;28;20540;-75
2021/04/07 08:37:19;;;;;;;31.23;2.67;;;;;;;-145.50;100.00;65435.88;5064934;28;20491;-75
2021/04/07 08:39:46;;;;;;;;;;;;;;;-145.50;100.00;65435.88;5068968;28;20059;-76
2021/04/07 08:42:13;;;;;;;11.70;2.03;;;;;;;4.27;82.06;101414.03;5063187;28;19928;-75
2021/04/07 08:44:44;;;;;;;15.27;1.50;;;;;;;4.27;81.82;101421.81;5067278;28;20555;-75
2021/04/07 08:47:29;;;;;;;11.52;1.55;;;;;;;4.34;82.60;101417.91;5066033;28;20102;-75
2021/04/07 08:50:04;;;;;;;17.60;1.90;;;;;;;4.47;83.00;101420.63;5054704;28;20566;-75
2021/04/07 08:52:50;;;;;;;11.32;2.53;;;;;;;-145.50;100.00;65435.88;5060866;28;20052;-75
2021/04/07 08:55:35;;;;;;;21.42;2.90;;;;;;;4.47;100.00;83910.94;5087110;28;20117;-75
2021/04/07 08:58:04;;;;;;;18.25;2.55;;;;;;;4.47;83.00;101420.63;5073681;28;20080;-76
2021/04/07 09:00:40;;;;;;;29.15;3.75;;;;;;;-145.50;100.00;65435.88;5071697;28;20067;-76
2021/04/07 09:03:14;;;;;;;21.73;3.15;;;;;;;-145.50;100.00;65435.88;5076387;28;20557;-76
2021/04/07 09:05:59;;;;;;;40.75;3.90;;;;;;;-145.50;100.00;65435.88;5068394;28;20055;-76
2021/04/07 09:08:26;;;;;;;24.65;3.70;;;;;;;-145.50;100.00;65435.88;5068743;28;20209;-76
2021/04/07 09:11:00;;;;;;;33.40;4.13;;;;;;;-145.50;83.00;101420.63;5058922;28;20434;-76
2021/04/07 09:13:29;;;;;;;28.55;3.78;;;;;;;4.47;83.00;101420.63;5048200;28;20064;-76
2021/04/07 09:16:04;;;;;;;32.45;4.15;;;;;;;4.47;83.00;101420.63;5073526;28;20052;-76
2021/04/07 09:18:43;;;;;;;29.95;3.35;;;;;;;-145.50;100.00;65435.88;5083939;28;20064;-75
2021/04/07 09:21:16;;;;;;;35.95;4.18;;;;;;;-145.50;100.00;65435.88;5063197;28;20066;-75
2021/04/07 09:24:01;;;;;;;25.75;3.22;;;;;;;4.47;83.00;101420.63;5068542;28;20549;-75
2021/04/07 09:26:31;;;;;;;29.00;3.88;;;;;;;4.47;83.00;101420.63;5074475;28;20510;-75
2021/04/07 09:28:57;;;;;;;28.48;3.22;;;;;;;4.47;83.00;101420.63;5072819;28;20052;-75
2021/04/07 09:31:35;;;;;;;36.78;3.40;;;;;;;-145.50;100.00;65435.88;5055362;28;20176;-75
2021/04/07 09:34:02;;;;;;;27.92;3.38;;;;;;;-145.50;100.00;65435.88;5085716;28;20609;-75
2021/04/07 09:36:34;;;;;;;22.90;3.63;;;;;;;4.47;83.00;101420.63;5085931;28;20052;-75
2021/04/07 09:39:06;;;;;;;40.90;4.43;;;;;;;-145.50;100.00;65435.88;5070882;28;20499;-75
2021/04/07 09:41:36;;;;;;;30.48;4.60;;;;;;;4.47;83.00;101420.63;5086040;28;20044;-75
2021/04/07 09:44:05;;;;;;;24.58;3.03;;;;;;;-145.50;100.00;65435.88;5074948;28;20446;-75
2021/04/07 09:46:32;;;;;;;31.85;3.78;;;;;;;-145.50;0.00;65435.88;5082797;28;20067;-75
2021/04/07 09:49:06;;;;;;;29.98;4.03;;;;;;;-145.50;100.00;65435.88;5080404;28;20511;-75
2021/04/07 09:51:41;;;;;;;39.88;4.28;;;;;;;6.38;72.58;101502.25;5076888;28;20056;-76
2021/04/07 09:54:23;;;;;;;28.52;3.83;;;;;;;6.38;72.58;101502.25;5076523;28;20044;-75
2021/04/07 09:57:11;;;;;;;27.10;3.47;;;;;;;-145.50;100.00;65435.88;5053461;28;20044;-75
2021/04/07 09:59:47;;;;;;;22.13;3.65;;;;;;;-145.50;100.00;65435.88;5073694;28;20048;-75
2021/04/07 10:02:23;;;;;;;15.13;2.55;;;;;;;-145.50;100.00;65435.88;5076279;28;20048;-75
2021/04/07 10:04:53;;;;;;;18.90;2.33;;;;;;;-145.50;100.00;65435.88;5072968;28;20151;-75
2021/04/07 10:07:30;;;;;;;18.45;2.70;;;;;;;6.38;100.00;101502.25;5056415;28;20062;-75
2021/04/07 10:10:00;;;;;;;23.05;2.60;;;;;;;6.38;72.58;101502.25;5083520;28;20400;-75
2021/04/07 10:12:33;;;;;;;26.08;3.40;;;;;;;5.49;76.94;101539.22;5072641;28;20059;-75
2021/04/07 10:15:04;;;;;;;24.70;2.92;;;;;;;-145.50;100.00;65435.88;5083111;28;20119;-74
2021/04/07 10:17:36;;;;;;;17.63;2.40;;;;;;;5.49;76.94;101539.22;5069935;28;20096;-74
2021/04/07 10:20:13;;;;;;;19.38;2.13;;;;;;;-145.50;100.00;65435.88;5080700;28;20101;-74
2021/04/07 10:22:41;;;;;;;24.00;3.03;;;;;;;5.49;76.94;101539.22;5078319;28;20488;-74
2021/04/07 10:25:15;;;;;;;24.42;4.20;;;;;;;-145.50;100.00;65435.88;5063504;28;20132;-74
2021/04/07 10:27:44;;;;;;;25.23;3.05;;;;;;;6.88;75.92;101544.09;5071032;28;20060;-74
2021/04/07 10:30:13;;;;;;;20.63;2.42;;;;;;;7.19;74.26;101549.81;5055726;28;20047;-74
2021/04/07 10:32:46;;;;;;;17.90;3.17;;;;;;;7.06;71.60;101547.22;5062249;28;20109;-74
2021/04/07 10:35:21;;;;;;;25.27;2.47;;;;;;;7.07;71.91;101556.72;5073961;28;20060;-74
2021/04/07 10:38:11;;;;;;;19.77;2.38;;;;;;;7.11;72.88;101564.25;5071969;28;20071;-74
2021/04/07 10:40:40;;;;;;;25.95;3.30;;;;;;;7.03;71.69;101573.53;5066460;28;20085;-74
2021/04/07 10:43:13;;;;;;;;;;;;;;;6.71;69.07;101574.75;5070046;28;20056;-74
2021/04/07 10:45:39;;;;;;;18.60;2.33;;;;;;;6.68;71.41;101569.78;5078834;28;19931;-74
2021/04/07 10:48:05;;;;;;;46.30;12.93;;;;;;;6.53;71.10;101587.25;5085573;28;20047;-72
2021/04/07 10:50:33;;;;;;;23.02;3.80;;;;;;;7.01;73.16;101588.44;5069775;28;20052;-74
2021/04/07 10:53:00;;;;;;;33.95;3.90;;;;;;;6.96;72.13;101595.72;5054917;28;20052;-75
2021/04/07 10:55:28;;;;;;;21.15;3.47;;;;;;;6.85;71.42;101606.91;5062239;28;20052;-75
2021/04/07 10:57:56;;;;;;;19.55;3.10;;;;;;;6.54;71.33;101614.97;5072570;28;20052;-73
2021/04/07 11:00:33;;;;;;;21.67;3.07;;;;;;;6.32;71.97;101632.94;5063337;28;20174;-75
2021/04/07 11:02:59;;;;;;;15.05;2.67;;;;;;;6.05;73.44;101672.00;5067586;28;20048;-76
2021/04/07 11:05:37;;;;;;;15.00;1.75;;;;;;;5.67;73.99;101636.16;5070047;28;20702;-76
2021/04/07 11:08:06;;;;;;;14.88;2.60;;;;;;;5.65;74.44;101627.59;5047909;28;20096;-76
2021/04/07 11:10:36;;;;;;;15.88;2.30;;;;;;;5.66;75.27;101630.09;5073669;28;20059;-76
2021/04/07 11:13:03;;;;;;;25.73;2.85;;;;;;;5.57;73.93;101628.06;5106311;28;20048;-77
2021/04/07 11:15:29;;;;;;;26.35;3.05;;;;;;;5.78;75.48;101636.31;5082187;28;20085;-73
2021/04/07 11:17:56;;;;;;;26.90;3.15;;;;;;;5.96;74.50;101636.13;5066985;28;20051;-76
2021/04/07 11:20:24;;;;;;;29.23;3.20;;;;;;;6.21;75.52;101638.00;5067141;28;20419;-74
2021/04/07 11:22:50;;;;;;;35.38;4.03;;;;;;;6.25;73.20;101632.53;5065736;28;20052;-75
2021/04/07 11:25:17;;;;;;;29.92;3.83;;;;;;;6.53;75.08;101643.78;5061543;28;20064;-72
2021/04/07 11:27:43;;;;;;;39.63;3.75;;;;;;;6.64;74.55;101641.28;5082426;28;20187;-71
2021/04/07 11:30:10;;;;;;;22.38;2.60;;;;;;;6.48;71.41;101661.47;5079420;28;20055;-73
2021/04/07 11:32:39;;;;;;;18.77;2.42;;;;;;;6.31;71.42;101675.56;5077058;28;20052;-74
2021/04/07 11:35:36;;;;;;;23.13;4.43;;;;;;;5.84;72.44;101688.03;5069394;28;20134;-73
2021/04/07 11:38:04;;;;;;;21.08;2.38;;;;;;;5.49;72.89;101682.34;5065368;28;20048;-74
2021/04/07 11:43:22;;;;;;;23.83;2.45;;;;;;;5.42;73.53;101671.47;5074703;28;20056;-74